createdAt,value
2016-09-10T00:00:38.923Z,99.99
2016-09-10T00:01:38.846Z,99.99
2016-09-10T00:02:38.860Z,99.99
2016-09-10T00:03:38.886Z,99.99
2016-09-10T00:04:38.903Z,99.99
2016-09-10T00:05:38.929Z,99.99
2016-09-10T00:06:38.955Z,99.99
2016-09-10T00:07:38.969Z,99.99
2016-09-10T00:08:38.980Z,99.99
2016-09-10T00:09:38.703Z,99.99
2016-09-10T00:10:38.725Z,99.99
2016-09-10T00:11:38.765Z,99.99
2016-09-10T00:12:38.775Z,99.99
2016-09-10T00:13:39.108Z,99.99
2016-09-10T00:14:38.857Z,99.99
2016-09-10T00:15:38.835Z,99.99
2016-09-10T00:16:38.929Z,99.99
2016-09-10T00:17:38.868Z,99.99
2016-09-10T00:18:38.945Z,99.99
2016-09-10T00:19:38.912Z,99.99
2016-09-10T00:20:39.305Z,99.99
2016-09-10T00:21:38.974Z,99.99
2016-09-10T00:22:39.294Z,99.99
2016-09-10T00:23:39.317Z,99.99
2016-09-10T00:24:39.328Z,99.99
2016-09-10T00:25:39.123Z,99.99
2016-09-10T00:26:39.371Z,99.99
2016-09-10T00:27:39.223Z,99.99
2016-09-10T00:28:39.114Z,99.99
2016-09-10T00:29:39.164Z,99.99
2016-09-10T00:30:39.150Z,99.99
2016-09-10T00:31:39.186Z,99.99
2016-09-10T00:32:39.183Z,99.99
2016-09-10T00:33:39.211Z,99.99
2016-09-10T00:34:39.289Z,99.99
2016-09-10T00:35:39.291Z,99.99
2016-09-10T00:36:39.292Z,99.99
2016-09-10T00:37:39.302Z,99.99
2016-09-10T00:38:39.305Z,99.99
2016-09-10T00:39:39.361Z,99.99
2016-09-10T00:40:39.352Z,99.99
2016-09-10T00:41:39.376Z,99.99
2016-09-10T00:42:39.400Z,99.99
2016-09-10T00:43:39.640Z,99.99
2016-09-10T00:44:39.608Z,99.99
2016-09-10T00:45:39.466Z,99.99
2016-09-10T00:46:39.786Z,99.99
2016-09-10T00:47:39.496Z,99.99
2016-09-10T00:48:39.503Z,99.99
2016-09-10T00:49:39.546Z,99.99
2016-09-10T00:50:39.551Z,99.99
2016-09-10T00:51:39.595Z,99.99
2016-09-10T00:52:39.637Z,99.99
2016-09-10T00:53:39.692Z,99.99
2016-09-10T00:54:39.947Z,99.99
2016-09-10T00:55:39.728Z,99.99
2016-09-10T00:56:39.736Z,99.99
2016-09-10T00:57:39.736Z,99.99
2016-09-10T00:58:40.033Z,99.99
2016-09-10T00:59:39.758Z,99.99
2016-09-10T01:00:40.071Z,99.99
2016-09-10T01:01:39.797Z,99.99
2016-09-10T01:02:39.823Z,99.99
2016-09-10T01:03:39.828Z,99.99
2016-09-10T01:04:39.849Z,99.99
2016-09-10T01:05:39.862Z,99.99
2016-09-10T01:06:39.900Z,99.99
2016-09-10T01:07:39.914Z,99.76
2016-09-10T01:08:39.930Z,99.76
2016-09-10T01:09:39.958Z,99.99
2016-09-10T01:10:40.287Z,99.99
2016-09-10T01:11:40.297Z,99.85
2016-09-10T01:12:40.046Z,99.85
2016-09-10T01:13:40.182Z,99.95
2016-09-10T01:14:40.509Z,99.76
2016-09-10T01:15:40.078Z,99.76
2016-09-10T01:16:40.147Z,99.99
2016-09-10T01:17:40.117Z,99.95
2016-09-10T01:18:40.139Z,99.76
2016-09-10T01:19:40.277Z,99.66
2016-09-10T01:20:40.177Z,99.76
2016-09-10T01:21:40.208Z,99.76
2016-09-10T01:22:40.217Z,99.66
2016-09-10T01:23:40.249Z,99.85
2016-09-10T01:24:40.402Z,99.99
2016-09-10T01:25:40.322Z,99.66
2016-09-10T01:26:40.296Z,99.76
2016-09-10T01:27:40.396Z,99.76
2016-09-10T01:28:40.848Z,99.99
2016-09-10T01:29:40.368Z,99.71
2016-09-10T01:30:40.759Z,99.99
2016-09-10T01:31:40.703Z,99.99
2016-09-10T01:32:40.727Z,99.99
2016-09-10T01:33:40.474Z,99.61
2016-09-10T01:34:40.778Z,99.61
2016-09-10T01:35:40.652Z,99.8
2016-09-10T01:36:40.849Z,99.99
2016-09-10T01:37:40.839Z,99.85
2016-09-10T01:38:40.655Z,99.99
2016-09-10T01:39:40.554Z,99.99
2016-09-10T01:40:40.639Z,99.8
2016-09-10T01:41:40.625Z,99.99
2016-09-10T01:42:40.653Z,99.99
2016-09-10T01:43:40.658Z,99.99
2016-09-10T01:44:40.692Z,99.99
2016-09-10T01:45:40.746Z,99.8
2016-09-10T01:46:41.030Z,99.61
2016-09-10T01:47:40.741Z,99.99
2016-09-10T01:48:40.755Z,99.99
2016-09-10T01:49:41.179Z,99.99
2016-09-10T01:50:41.119Z,99.99
2016-09-10T01:51:40.832Z,99.99
2016-09-10T01:52:40.858Z,99.99
2016-09-10T01:53:40.870Z,99.99
2016-09-10T01:54:40.953Z,99.99
2016-09-10T01:55:40.903Z,99.99
2016-09-10T01:56:41.237Z,99.76
2016-09-10T01:57:40.950Z,99.8
2016-09-10T01:58:40.982Z,99.8
2016-09-10T01:59:41.202Z,99.61
2016-09-10T02:00:41.032Z,99.71
2016-09-10T02:01:41.015Z,99.9
2016-09-10T02:02:41.116Z,99.71
2016-09-10T02:03:41.058Z,99.9
2016-09-10T02:04:41.387Z,99.8
2016-09-10T02:05:41.104Z,99.9
2016-09-10T02:06:41.134Z,99.9
2016-09-10T02:07:41.137Z,99.8
2016-09-10T02:08:41.487Z,99.8
2016-09-10T02:09:41.436Z,99.8
2016-09-10T02:10:41.528Z,99.8
2016-09-10T02:11:41.305Z,99.8
2016-09-10T02:12:41.294Z,99.71
2016-09-10T02:13:41.303Z,99.9
2016-09-10T02:14:41.297Z,99.99
2016-09-10T02:15:41.385Z,99.99
2016-09-10T02:16:41.630Z,99.99
2016-09-10T02:17:41.659Z,99.99
2016-09-10T02:18:41.388Z,99.99
2016-09-10T02:19:41.405Z,99.99
2016-09-10T02:20:41.447Z,99.99
2016-09-10T02:21:41.779Z,99.99
2016-09-10T02:22:41.519Z,99.61
2016-09-10T02:23:41.473Z,99.71
2016-09-10T02:24:41.793Z,99.8
2016-09-10T02:25:41.836Z,99.71
2016-09-10T02:26:41.853Z,99.99
2016-09-10T02:27:41.555Z,99.99
2016-09-10T02:28:41.901Z,99.8
2016-09-10T02:29:41.907Z,99.71
2016-09-10T02:30:41.923Z,99.8
2016-09-10T02:31:41.659Z,99.8
2016-09-10T02:32:42.023Z,99.61
2016-09-10T02:33:41.687Z,99.8
2016-09-10T02:34:41.705Z,99.8
2016-09-10T02:35:41.715Z,99.71
2016-09-10T02:36:41.752Z,99.71
2016-09-10T02:37:41.764Z,99.61
2016-09-10T02:38:41.784Z,99.9
2016-09-10T02:39:41.825Z,99.9
2016-09-10T02:40:41.831Z,99.99
2016-09-10T02:41:42.168Z,99.9
2016-09-10T02:42:41.873Z,99.8
2016-09-10T02:43:41.884Z,99.75
2016-09-10T02:44:41.939Z,99.61
2016-09-10T02:45:41.937Z,99.56
2016-09-10T02:46:41.956Z,99.75
2016-09-10T02:47:42.271Z,99.75
2016-09-10T02:48:42.001Z,99.85
2016-09-10T02:49:41.998Z,99.85
2016-09-10T02:50:42.038Z,99.85
2016-09-10T02:51:42.041Z,99.75
2016-09-10T02:52:42.430Z,99.66
2016-09-10T02:53:42.406Z,99.99
2016-09-10T02:54:42.100Z,99.99
2016-09-10T02:55:42.282Z,99.66
2016-09-10T02:56:42.138Z,99.66
2016-09-10T02:57:42.177Z,99.66
2016-09-10T02:58:42.512Z,99.99
2016-09-10T02:59:42.229Z,99.99
2016-09-10T03:00:42.564Z,99.99
2016-09-10T03:01:42.569Z,99.99
2016-09-10T03:02:42.346Z,99.99
2016-09-10T03:03:42.314Z,99.99
2016-09-10T03:04:42.644Z,99.99
2016-09-10T03:05:42.385Z,99.99
2016-09-10T03:06:42.346Z,99.99
2016-09-10T03:07:42.395Z,99.99
2016-09-10T03:08:42.392Z,99.99
2016-09-10T03:09:42.415Z,99.99
2016-09-10T03:10:42.439Z,99.99
2016-09-10T03:11:42.453Z,99.99
2016-09-10T03:12:42.564Z,99.99
2016-09-10T03:13:42.497Z,99.99
2016-09-10T03:14:42.830Z,99.99
2016-09-10T03:15:42.877Z,99.99
2016-09-10T03:16:42.568Z,99.95
2016-09-10T03:17:42.563Z,99.99
2016-09-10T03:18:42.658Z,99.99
2016-09-10T03:19:42.921Z,99.99
2016-09-10T03:20:42.639Z,99.99
2016-09-10T03:21:42.669Z,99.99
2016-09-10T03:22:42.671Z,99.99
2016-09-10T03:23:43.027Z,99.99
2016-09-10T03:24:43.043Z,99.99
2016-09-10T03:25:42.896Z,99.99
2016-09-10T03:26:43.056Z,99.99
2016-09-10T03:27:42.929Z,99.99
2016-09-10T03:28:42.817Z,99.95
2016-09-10T03:29:42.858Z,99.99
2016-09-10T03:30:43.144Z,99.99
2016-09-10T03:31:42.856Z,99.99
2016-09-10T03:32:43.212Z,99.99
2016-09-10T03:33:42.913Z,99.99
2016-09-10T03:34:42.932Z,99.99
2016-09-10T03:35:42.934Z,99.99
2016-09-10T03:36:43.265Z,99.99
2016-09-10T03:37:42.982Z,99.99
2016-09-10T03:38:43.045Z,99.99
2016-09-10T03:39:43.345Z,99.99
2016-09-10T03:40:43.393Z,99.99
2016-09-10T03:41:43.400Z,99.99
2016-09-10T03:42:43.094Z,99.99
2016-09-10T03:43:43.133Z,99.99
2016-09-10T03:44:43.431Z,99.99
2016-09-10T03:45:43.154Z,99.99
2016-09-10T03:46:43.156Z,99.99
2016-09-10T03:47:43.496Z,99.99
2016-09-10T03:48:43.199Z,99.99
2016-09-10T03:49:43.270Z,99.99
2016-09-10T03:50:43.252Z,99.99
2016-09-10T03:51:43.652Z,99.99
2016-09-10T03:52:43.297Z,99.99
2016-09-10T03:53:43.298Z,99.99
2016-09-10T03:54:43.325Z,99.99
2016-09-10T03:55:43.344Z,99.99
2016-09-10T03:56:43.676Z,99.99
2016-09-10T03:57:43.385Z,99.99
2016-09-10T03:58:43.414Z,99.99
2016-09-10T03:59:43.417Z,99.99
2016-09-10T04:00:43.448Z,99.99
2016-09-10T04:01:43.767Z,99.99
2016-09-10T04:02:43.807Z,99.99
2016-09-10T04:03:43.804Z,99.99
2016-09-10T04:04:43.837Z,99.99
2016-09-10T04:05:43.545Z,99.99
2016-09-10T04:06:43.936Z,99.99
2016-09-10T04:07:43.597Z,99.75
2016-09-10T04:08:43.907Z,99.66
2016-09-10T04:09:43.639Z,99.95
2016-09-10T04:10:43.941Z,99.66
2016-09-10T04:11:43.968Z,99.85
2016-09-10T04:12:44.069Z,99.66
2016-09-10T04:13:43.704Z,99.66
2016-09-10T04:14:43.761Z,99.99
2016-09-10T04:15:44.055Z,99.99
2016-09-10T04:16:43.788Z,99.99
2016-09-10T04:17:43.835Z,99.99
2016-09-10T04:18:43.811Z,99.99
2016-09-10T04:19:43.820Z,99.99
2016-09-10T04:20:44.155Z,99.75
2016-09-10T04:21:43.865Z,99.99
2016-09-10T04:22:43.878Z,99.99
2016-09-10T04:23:44.010Z,99.99
2016-09-10T04:24:43.912Z,99.99
2016-09-10T04:25:43.949Z,99.99
2016-09-10T04:26:43.977Z,99.99
2016-09-10T04:27:44.298Z,99.99
2016-09-10T04:28:44.022Z,99.99
2016-09-10T04:29:44.021Z,99.85
2016-09-10T04:30:44.142Z,99.85
2016-09-10T04:31:44.077Z,99.66
2016-09-10T04:32:44.095Z,99.7
2016-09-10T04:33:44.115Z,99.8
2016-09-10T04:34:44.136Z,99.8
2016-09-10T04:35:44.206Z,99.7
2016-09-10T04:36:44.168Z,99.7
2016-09-10T04:37:44.197Z,99.75
2016-09-10T04:38:44.523Z,99.8
2016-09-10T04:39:44.242Z,99.51
2016-09-10T04:40:44.264Z,99.8
2016-09-10T04:41:44.578Z,99.6
2016-09-10T04:42:44.289Z,99.8
2016-09-10T04:43:44.372Z,99.7
2016-09-10T04:44:44.319Z,99.7
2016-09-10T04:45:44.373Z,99.99
2016-09-10T04:46:44.369Z,99.99
2016-09-10T04:47:44.404Z,99.99
2016-09-10T04:48:44.400Z,99.99
2016-09-10T04:49:44.738Z,99.99
2016-09-10T04:50:44.745Z,99.99
2016-09-10T04:51:44.456Z,99.99
2016-09-10T04:52:44.547Z,99.99
2016-09-10T04:53:44.810Z,99.99
2016-09-10T04:54:44.576Z,99.6
2016-09-10T04:55:44.540Z,99.99
2016-09-10T04:56:44.572Z,99.7
2016-09-10T04:57:44.602Z,99.8
2016-09-10T04:58:44.642Z,99.99
2016-09-10T04:59:44.649Z,99.51
2016-09-10T05:00:44.638Z,99.99
2016-09-10T05:01:44.666Z,99.6
2016-09-10T05:02:45.013Z,99.6
2016-09-10T05:03:45.018Z,99.6
2016-09-10T05:04:44.739Z,99.99
2016-09-10T05:05:44.734Z,99.99
2016-09-10T05:06:45.094Z,99.99
2016-09-10T05:07:44.794Z,99.99
2016-09-10T05:08:45.118Z,99.99
2016-09-10T05:09:44.926Z,99.99
2016-09-10T05:10:44.840Z,99.99
2016-09-10T05:11:44.877Z,99.6
2016-09-10T05:12:44.888Z,99.51
2016-09-10T05:13:44.945Z,99.8
2016-09-10T05:14:44.929Z,99.6
2016-09-10T05:15:45.261Z,99.8
2016-09-10T05:16:45.280Z,99.7
2016-09-10T05:17:44.988Z,99.7
2016-09-10T05:18:45.019Z,99.99
2016-09-10T05:19:45.038Z,99.41
2016-09-10T05:20:45.080Z,99.8
2016-09-10T05:21:45.060Z,99.7
2016-09-10T05:22:45.127Z,99.99
2016-09-10T05:23:45.131Z,99.99
2016-09-10T05:24:45.178Z,99.99
2016-09-10T05:25:45.159Z,99.99
2016-09-10T05:26:45.184Z,99.99
2016-09-10T05:27:45.500Z,99.99
2016-09-10T05:28:45.206Z,99.99
2016-09-10T05:29:45.311Z,99.99
2016-09-10T05:30:45.550Z,99.99
2016-09-10T05:31:45.279Z,99.66
2016-09-10T05:32:45.288Z,99.66
2016-09-10T05:33:45.459Z,99.75
2016-09-10T05:34:45.342Z,99.75
2016-09-10T05:35:45.360Z,99.99
2016-09-10T05:36:45.375Z,99.66
2016-09-10T05:37:45.398Z,99.99
2016-09-10T05:38:45.730Z,99.61
2016-09-10T05:39:45.449Z,99.52
2016-09-10T05:40:45.445Z,99.52
2016-09-10T05:41:45.468Z,99.8
2016-09-10T05:42:45.495Z,99.9
2016-09-10T05:43:45.626Z,99.8
2016-09-10T05:44:45.527Z,99.66
2016-09-10T05:45:45.537Z,99.66
2016-09-10T05:46:45.577Z,99.37
2016-09-10T05:47:45.588Z,99.18
2016-09-10T05:48:45.609Z,99.47
2016-09-10T05:49:45.626Z,99.57
2016-09-10T05:50:45.670Z,99.52
2016-09-10T05:51:45.687Z,99.19
2016-09-10T05:52:45.696Z,99.99
2016-09-10T05:53:45.707Z,99.99
2016-09-10T05:54:45.764Z,99.99
2016-09-10T05:55:45.756Z,99.99
2016-09-10T05:56:45.778Z,99.99
2016-09-10T05:57:45.796Z,99.39
2016-09-10T05:58:45.827Z,96.18
2016-09-10T05:59:45.860Z,96.61
2016-09-10T06:00:46.189Z,95.79
2016-09-10T06:01:45.891Z,91.9
2016-09-10T06:02:45.908Z,93.44
2016-09-10T06:03:45.945Z,92.23
2016-09-10T06:04:46.285Z,91.66
2016-09-10T06:05:45.981Z,89.78
2016-09-10T06:06:46.020Z,88.67
2016-09-10T06:07:46.027Z,88.18
2016-09-10T06:08:46.360Z,85.38
2016-09-10T06:09:46.087Z,84.61
2016-09-10T06:10:46.698Z,82.82
2016-09-10T06:11:46.624Z,80.83
2016-09-10T06:12:46.608Z,79.77
2016-09-10T06:13:46.324Z,79.24
2016-09-10T06:14:46.652Z,75.99
2016-09-10T06:15:46.415Z,73.32
2016-09-10T06:16:46.339Z,71.1
2016-09-10T06:17:46.355Z,67.46
2016-09-10T06:18:46.363Z,66.14
2016-09-10T06:19:46.737Z,64.34
2016-09-10T06:20:46.350Z,64.43
2016-09-10T06:21:46.778Z,64.53
2016-09-10T06:22:46.426Z,63.85
2016-09-10T06:23:46.655Z,63.08
2016-09-10T06:24:46.453Z,63.76
2016-09-10T06:25:46.528Z,63.63
2016-09-10T06:26:46.846Z,64.11
2016-09-10T06:27:46.826Z,64.21
2016-09-10T06:28:46.651Z,63.82
2016-09-10T06:29:46.607Z,63.82
2016-09-10T06:30:46.615Z,63.73
2016-09-10T06:31:46.676Z,63.56
2016-09-10T06:32:46.837Z,62.56
2016-09-10T06:33:46.683Z,62.4
2016-09-10T06:34:47.023Z,62.21
2016-09-10T06:35:46.747Z,62.01
2016-09-10T06:36:46.796Z,60.88
2016-09-10T06:37:46.885Z,60.59
2016-09-10T06:38:46.821Z,60.69
2016-09-10T06:39:47.166Z,60.98
2016-09-10T06:40:47.205Z,60.66
2016-09-10T06:41:47.225Z,60.59
2016-09-10T06:42:47.306Z,60.59
2016-09-10T06:43:46.985Z,60.57
2016-09-10T06:44:46.995Z,60.37
2016-09-10T06:45:47.411Z,60.98
2016-09-10T06:46:47.041Z,60.04
2016-09-10T06:47:47.076Z,58.81
2016-09-10T06:48:47.114Z,58.16
2016-09-10T06:49:47.135Z,56.45
2016-09-10T06:50:47.471Z,55.5
2016-09-10T06:51:47.204Z,54.85
2016-09-10T06:52:47.226Z,53.45
2016-09-10T06:53:47.255Z,52.28
2016-09-10T06:54:47.301Z,51.62
2016-09-10T06:55:47.320Z,50.97
2016-09-10T06:56:47.350Z,49.92
2016-09-10T06:57:47.368Z,49.46
2016-09-10T06:58:47.702Z,49.07
2016-09-10T06:59:47.734Z,48.39
2016-09-10T07:00:47.456Z,48.68
2016-09-10T07:01:47.541Z,48.12
2016-09-10T07:02:47.525Z,48.12
2016-09-10T07:03:47.544Z,47.73
2016-09-10T07:04:47.572Z,47.63
2016-09-10T07:05:47.711Z,47.46
2016-09-10T07:06:47.646Z,46.7
2016-09-10T07:07:47.665Z,46.41
2016-09-10T07:08:47.715Z,44.78
2016-09-10T07:09:47.747Z,45.07
2016-09-10T07:10:48.054Z,44.9
2016-09-10T07:11:48.104Z,44.31
2016-09-10T07:12:47.915Z,44.41
2016-09-10T07:13:47.889Z,45
2016-09-10T07:14:47.863Z,44.14
2016-09-10T07:15:48.211Z,44.34
2016-09-10T07:16:47.924Z,44.24
2016-09-10T07:17:47.963Z,44.34
2016-09-10T07:18:48.009Z,44.7
2016-09-10T07:19:48.013Z,44.41
2016-09-10T07:20:48.045Z,44.73
2016-09-10T07:21:48.183Z,44.14
2016-09-10T07:22:48.123Z,43.77
2016-09-10T07:23:48.457Z,43.48
2016-09-10T07:24:48.168Z,44.45
2016-09-10T07:25:48.205Z,44.92
2016-09-10T07:26:48.277Z,44.24
2016-09-10T07:27:48.245Z,44.53
2016-09-10T07:28:48.308Z,44.82
2016-09-10T07:29:48.614Z,44.9
2016-09-10T07:30:48.348Z,44.9
2016-09-10T07:31:48.428Z,44.9
2016-09-10T07:32:48.767Z,45.68
2016-09-10T07:33:48.458Z,46.24
2016-09-10T07:34:48.496Z,47.49
2016-09-10T07:35:48.489Z,47.29
2016-09-10T07:36:48.524Z,47.09
2016-09-10T07:37:48.553Z,48.07
2016-09-10T07:38:48.918Z,49.8
2016-09-10T07:39:48.931Z,51.31
2016-09-10T07:40:48.653Z,54.25
2016-09-10T07:41:49.082Z,57.08
2016-09-10T07:42:48.683Z,60.42
2016-09-10T07:43:48.746Z,63.72
2016-09-10T07:44:49.123Z,66.63
2016-09-10T07:45:48.776Z,68.04
2016-09-10T07:46:48.818Z,71.45
2016-09-10T07:47:49.139Z,73.54
2016-09-10T07:48:48.883Z,74.14
2016-09-10T07:49:48.924Z,77.13
2016-09-10T07:50:49.066Z,77.83
2016-09-10T07:51:48.946Z,78.88
2016-09-10T07:52:48.972Z,79.61
2016-09-10T07:53:48.989Z,80.68
2016-09-10T07:54:49.056Z,81.16
2016-09-10T07:55:49.088Z,81.63
2016-09-10T07:56:49.089Z,83.37
2016-09-10T07:57:49.108Z,82.6
2016-09-10T07:58:49.140Z,82.6
2016-09-10T07:59:49.176Z,83.81
2016-09-10T08:00:49.208Z,83.33
2016-09-10T08:01:49.227Z,83.52
2016-09-10T08:02:49.247Z,83.52
2016-09-10T08:03:49.275Z,84.1
2016-09-10T08:04:49.289Z,84
2016-09-10T08:05:49.322Z,84.29
2016-09-10T08:06:49.337Z,84.97
2016-09-10T08:07:49.360Z,84.48
2016-09-10T08:08:49.393Z,84.58
2016-09-10T08:09:49.422Z,85.25
2016-09-10T08:10:49.457Z,85.3
2016-09-10T08:11:49.499Z,84.53
2016-09-10T08:12:49.507Z,85
2016-09-10T08:13:49.524Z,84.43
2016-09-10T08:14:49.637Z,84.33
2016-09-10T08:15:50.078Z,84.05
2016-09-10T08:16:49.612Z,84.05
2016-09-10T08:17:49.937Z,84.23
2016-09-10T08:18:49.655Z,83.85
2016-09-10T08:19:49.676Z,84.14
2016-09-10T08:20:49.714Z,83.56
2016-09-10T08:21:49.736Z,84.14
2016-09-10T08:22:50.085Z,83.28
2016-09-10T08:23:49.775Z,83.22
2016-09-10T08:24:50.149Z,83.61
2016-09-10T08:25:49.836Z,83.03
2016-09-10T08:26:49.865Z,82.74
2016-09-10T08:27:49.898Z,82.45
2016-09-10T08:28:49.941Z,82.64
2016-09-10T08:29:49.942Z,82.78
2016-09-10T08:30:49.994Z,82.93
2016-09-10T08:31:49.993Z,82.59
2016-09-10T08:32:50.045Z,82.29
2016-09-10T08:33:50.055Z,82.29
2016-09-10T08:34:50.082Z,82.2
2016-09-10T08:35:50.429Z,82.78
2016-09-10T08:36:50.131Z,82.01
2016-09-10T08:37:50.559Z,82.29
2016-09-10T08:38:50.176Z,81.95
2016-09-10T08:39:50.206Z,81.09
2016-09-10T08:40:50.234Z,80.79
2016-09-10T08:41:50.246Z,80.89
2016-09-10T08:42:50.320Z,80.69
2016-09-10T08:43:50.449Z,80.51
2016-09-10T08:44:50.329Z,79.68
2016-09-10T08:45:50.397Z,79.1
2016-09-10T08:46:50.384Z,79.29
2016-09-10T08:47:50.417Z,79.64
2016-09-10T08:48:50.475Z,79.97
2016-09-10T08:49:50.533Z,79.87
2016-09-10T08:50:50.531Z,79.39
2016-09-10T08:51:50.824Z,78.71
2016-09-10T08:52:50.555Z,78.81
2016-09-10T08:53:50.874Z,78.81
2016-09-10T08:54:50.625Z,79
2016-09-10T08:55:50.625Z,79.68
2016-09-10T08:56:51.052Z,79.39
2016-09-10T08:57:50.686Z,79.19
2016-09-10T08:58:50.782Z,79.87
2016-09-10T08:59:51.027Z,79.49
2016-09-10T09:00:50.818Z,79.19
2016-09-10T09:01:50.768Z,78.61
2016-09-10T09:02:50.846Z,78.52
2016-09-10T09:03:51.129Z,79.1
2016-09-10T09:04:50.862Z,79.81
2016-09-10T09:05:50.901Z,78.66
2016-09-10T09:06:50.916Z,77.98
2016-09-10T09:07:50.939Z,77.98
2016-09-10T09:08:50.958Z,78.08
2016-09-10T09:09:50.988Z,78.36
2016-09-10T09:10:51.012Z,78.02
2016-09-10T09:11:51.058Z,78.59
2016-09-10T09:12:51.042Z,78.31
2016-09-10T09:13:51.081Z,77.05
2016-09-10T09:14:51.162Z,77.34
2016-09-10T09:15:51.132Z,77.05
2016-09-10T09:16:51.275Z,75.93
2016-09-10T09:17:51.203Z,75.93
2016-09-10T09:18:51.228Z,76.03
2016-09-10T09:19:51.564Z,75.26
2016-09-10T09:20:51.289Z,75.93
2016-09-10T09:21:51.429Z,76.51
2016-09-10T09:22:51.451Z,76.51
2016-09-10T09:23:51.694Z,75.74
2016-09-10T09:24:51.700Z,76.03
2016-09-10T09:25:51.707Z,75.93
2016-09-10T09:26:51.742Z,75.54
2016-09-10T09:27:51.780Z,75.45
2016-09-10T09:28:51.476Z,75.58
2016-09-10T09:29:51.867Z,76.61
2016-09-10T09:30:51.534Z,76.55
2016-09-10T09:31:51.865Z,76.74
2016-09-10T09:32:51.919Z,75.97
2016-09-10T09:33:51.920Z,74.9
2016-09-10T09:34:51.638Z,75.13
2016-09-10T09:35:51.991Z,75.48
2016-09-10T09:36:52.015Z,75.13
2016-09-10T09:37:52.031Z,74.81
2016-09-10T09:38:51.759Z,74.52
2016-09-10T09:39:52.091Z,74.71
2016-09-10T09:40:51.798Z,74.46
2016-09-10T09:41:51.837Z,74.36
2016-09-10T09:42:51.878Z,73.88
2016-09-10T09:43:52.198Z,74.36
2016-09-10T09:44:52.255Z,74.85
2016-09-10T09:45:52.289Z,74.65
2016-09-10T09:46:52.026Z,73.78
2016-09-10T09:47:52.305Z,74.17
2016-09-10T09:48:52.020Z,73.68
2016-09-10T09:49:52.054Z,74.01
2016-09-10T09:50:52.401Z,73.63
2016-09-10T09:51:52.514Z,74.21
2016-09-10T09:52:52.147Z,74.11
2016-09-10T09:53:52.211Z,73.82
2016-09-10T09:54:52.207Z,74.49
2016-09-10T09:55:52.227Z,74.3
2016-09-10T09:56:52.256Z,74.69
2016-09-10T09:57:52.329Z,74.79
2016-09-10T09:58:52.308Z,74.79
2016-09-10T09:59:52.378Z,74.88
2016-09-10T10:00:52.663Z,75.75
2016-09-10T10:01:52.455Z,74.88
2016-09-10T10:02:52.749Z,74.88
2016-09-10T10:03:52.739Z,74.4
2016-09-10T10:04:52.783Z,75.17
2016-09-10T10:05:52.807Z,73.53
2016-09-10T10:06:52.834Z,73.57
2016-09-10T10:07:52.871Z,73.91
2016-09-10T10:08:52.578Z,72.89
2016-09-10T10:09:52.718Z,72.4
2016-09-10T10:10:52.639Z,70.56
2016-09-10T10:11:52.959Z,70.66
2016-09-10T10:12:52.692Z,71.53
2016-09-10T10:13:53.034Z,72.11
2016-09-10T10:14:53.064Z,71.76
2016-09-10T10:15:52.755Z,71.95
2016-09-10T10:16:53.104Z,70.7
2016-09-10T10:17:52.826Z,71.08
2016-09-10T10:18:53.149Z,71.18
2016-09-10T10:19:52.877Z,71.47
2016-09-10T10:20:53.019Z,71.95
2016-09-10T10:21:52.927Z,72.44
2016-09-10T10:22:53.008Z,72.21
2016-09-10T10:23:52.996Z,72.63
2016-09-10T10:24:53.033Z,72.92
2016-09-10T10:25:53.355Z,72.24
2016-09-10T10:26:53.382Z,72.05
2016-09-10T10:27:53.398Z,71.95
2016-09-10T10:28:53.432Z,72.05
2016-09-10T10:29:53.481Z,72.79
2016-09-10T10:30:53.476Z,72.3
2016-09-10T10:31:53.219Z,72.79
2016-09-10T10:32:53.226Z,71.92
2016-09-10T10:33:53.359Z,72.02
2016-09-10T10:34:53.319Z,72.5
2016-09-10T10:35:53.316Z,72.69
2016-09-10T10:36:53.352Z,71.92
2016-09-10T10:37:53.390Z,72.98
2016-09-10T10:38:53.424Z,72.4
2016-09-10T10:39:53.438Z,72.24
2016-09-10T10:40:53.462Z,72.6
2016-09-10T10:41:53.487Z,72.69
2016-09-10T10:42:53.509Z,73.02
2016-09-10T10:43:53.568Z,71.95
2016-09-10T10:44:53.572Z,72.63
2016-09-10T10:45:53.621Z,72.73
2016-09-10T10:46:53.630Z,72.83
2016-09-10T10:47:53.651Z,72.24
2016-09-10T10:48:53.763Z,72.34
2016-09-10T10:49:53.714Z,72.53
2016-09-10T10:50:53.868Z,72.6
2016-09-10T10:51:53.781Z,72.79
2016-09-10T10:52:54.133Z,72.53
2016-09-10T10:53:54.267Z,72.6
2016-09-10T10:54:54.168Z,72.98
2016-09-10T10:55:53.876Z,72.89
2016-09-10T10:56:53.895Z,72.53
2016-09-10T10:57:54.246Z,73.11
2016-09-10T10:58:53.957Z,72.83
2016-09-10T10:59:54.003Z,71.95
2016-09-10T11:00:54.057Z,71.47
2016-09-10T11:01:54.059Z,71.31
2016-09-10T11:02:54.103Z,72.53
2016-09-10T11:03:54.113Z,70.79
2016-09-10T11:04:54.490Z,70.79
2016-09-10T11:05:54.224Z,71.7
2016-09-10T11:06:54.539Z,71.7
2016-09-10T11:07:54.222Z,71.02
2016-09-10T11:08:54.245Z,70.6
2016-09-10T11:09:54.268Z,71.22
2016-09-10T11:10:54.298Z,71.7
2016-09-10T11:11:54.319Z,71.6
2016-09-10T11:12:54.360Z,72.96
2016-09-10T11:13:54.377Z,72.99
2016-09-10T11:14:54.414Z,71.34
2016-09-10T11:15:54.466Z,69.99
2016-09-10T11:16:54.474Z,68.82
2016-09-10T11:17:54.494Z,69.21
2016-09-10T11:18:54.519Z,68.92
2016-09-10T11:19:54.569Z,68.92
2016-09-10T11:20:54.899Z,69.12
2016-09-10T11:21:54.632Z,70.09
2016-09-10T11:22:54.681Z,71.73
2016-09-10T11:23:54.651Z,69.7
2016-09-10T11:24:54.692Z,70.57
2016-09-10T11:25:54.717Z,69.83
2016-09-10T11:26:54.747Z,69.44
2016-09-10T11:27:54.801Z,67.99
2016-09-10T11:28:54.805Z,68.86
2016-09-10T11:29:55.138Z,68.89
2016-09-10T11:30:54.871Z,68.12
2016-09-10T11:31:54.937Z,68.02
2016-09-10T11:32:54.909Z,68.89
2016-09-10T11:33:54.946Z,69.67
2016-09-10T11:34:54.963Z,68.7
2016-09-10T11:35:55.023Z,67.86
2016-09-10T11:36:55.054Z,66.99
2016-09-10T11:37:55.407Z,67.47
2016-09-10T11:38:55.087Z,67.14
2016-09-10T11:39:55.116Z,67.47
2016-09-10T11:40:55.464Z,67.57
2016-09-10T11:41:55.431Z,66.99
2016-09-10T11:42:55.520Z,66.79
2016-09-10T11:43:55.276Z,66.21
2016-09-10T11:44:55.232Z,66.11
2016-09-10T11:45:55.293Z,65.72
2016-09-10T11:46:55.367Z,65.63
2016-09-10T11:47:55.343Z,65.82
2016-09-10T11:48:55.388Z,64.98
2016-09-10T11:49:55.394Z,65.47
2016-09-10T11:50:55.415Z,65.24
2016-09-10T11:51:55.868Z,66.02
2016-09-10T11:52:55.462Z,66.05
2016-09-10T11:53:55.495Z,66.14
2016-09-10T11:54:55.549Z,65.92
2016-09-10T11:55:55.577Z,64.98
2016-09-10T11:56:55.918Z,65.82
2016-09-10T11:57:55.928Z,66.99
2016-09-10T11:58:55.635Z,66.89
2016-09-10T11:59:55.971Z,67.31
2016-09-10T12:00:55.693Z,65.75
2016-09-10T12:01:56.036Z,64.78
2016-09-10T12:02:56.211Z,64.4
2016-09-10T12:03:55.930Z,64.3
2016-09-10T12:04:55.967Z,64.23
2016-09-10T12:05:55.996Z,64.81
2016-09-10T12:06:55.995Z,63.55
2016-09-10T12:07:56.003Z,63.75
2016-09-10T12:08:56.244Z,64.33
2016-09-10T12:09:56.261Z,63.29
2016-09-10T12:10:56.123Z,64.23
2016-09-10T12:11:56.018Z,62.81
2016-09-10T12:12:56.046Z,62.81
2016-09-10T12:13:56.083Z,63.39
2016-09-10T12:14:56.406Z,62.71
2016-09-10T12:15:56.428Z,62.61
2016-09-10T12:16:56.168Z,61.38
2016-09-10T12:17:56.196Z,61.08
2016-09-10T12:18:56.219Z,60.79
2016-09-10T12:19:56.559Z,60.34
2016-09-10T12:20:56.490Z,60.72
2016-09-10T12:21:56.305Z,60.08
2016-09-10T12:22:56.390Z,59.1
2016-09-10T12:23:56.683Z,58.42
2016-09-10T12:24:56.719Z,59.78
2016-09-10T12:25:56.416Z,60.78
2016-09-10T12:26:56.538Z,59.52
2016-09-10T12:27:56.517Z,58.94
2016-09-10T12:28:56.496Z,60.42
2016-09-10T12:29:56.888Z,59.74
2016-09-10T12:30:56.568Z,59.35
2016-09-10T12:31:56.600Z,58.38
2016-09-10T12:32:56.626Z,59.45
2016-09-10T12:33:56.958Z,57.89
2016-09-10T12:34:56.681Z,59.16
2016-09-10T12:35:56.713Z,59.23
2016-09-10T12:36:56.747Z,58.54
2016-09-10T12:37:56.795Z,58.74
2016-09-10T12:38:56.792Z,59.1
2016-09-10T12:39:56.878Z,59.88
2016-09-10T12:40:56.878Z,60.75
2016-09-10T12:41:56.873Z,60.75
2016-09-10T12:42:56.926Z,61.54
2016-09-10T12:43:56.962Z,60.66
2016-09-10T12:44:56.992Z,60.88
2016-09-10T12:45:57.010Z,59.91
2016-09-10T12:46:57.035Z,59.52
2016-09-10T12:47:57.064Z,59.52
2016-09-10T12:48:57.114Z,59.03
2016-09-10T12:49:57.137Z,59.52
2016-09-10T12:50:57.161Z,59.39
2016-09-10T12:51:57.496Z,59.39
2016-09-10T12:52:57.208Z,59.39
2016-09-10T12:53:57.239Z,59.13
2016-09-10T12:54:57.275Z,60.3
2016-09-10T12:55:57.650Z,61.27
2016-09-10T12:56:57.373Z,61.37